sensor_id;sensor_type;location;lat;lon;timestamp;temperature;humidity
2873;DHT22;1444;49.166;7.312;2023-11-21T00:00:16;10.60;99.90
2873;DHT22;1444;49.166;7.312;2023-11-21T00:02:45;10.60;99.90
2873;DHT22;1444;49.166;7.312;2023-11-21T00:07:41;10.60;99.90
2873;DHT22;1444;49.166;7.312;2023-11-21T00:10:08;10.60;99.90
2873;DHT22;1444;49.166;7.312;2023-11-21T00:12:36;10.60;99.90
2873;DHT22;1444;49.166;7.312;2023-11-21T00:15:04;10.60;99.90
2873;DHT22;1444;49.166;7.312;2023-11-21T00:17:38;10.60;99.90
2873;DHT22;1444;49.166;7.312;2023-11-21T00:20:07;10.50;99.90
2873;DHT22;1444;49.166;7.312;2023-11-21T00:22:47;10.60;99.90
2873;DHT22;1444;49.166;7.312;2023-11-21T00:25:14;10.60;99.90
2873;DHT22;1444;49.166;7.312;2023-11-21T00:27:52;10.50;99.90
2873;DHT22;1444;49.166;7.312;2023-11-21T00:30:19;10.50;99.90
2873;DHT22;1444;49.166;7.312;2023-11-21T00:32:47;10.60;99.90
2873;DHT22;1444;49.166;7.312;2023-11-21T00:35:15;10.50;99.90
2873;DHT22;1444;49.166;7.312;2023-11-21T00:37:42;10.50;99.90
2873;DHT22;1444;49.166;7.312;2023-11-21T00:40:10;10.60;99.90
2873;DHT22;1444;49.166;7.312;2023-11-21T00:42:37;10.50;99.90
2873;DHT22;1444;49.166;7.312;2023-11-21T00:45:05;10.50;99.90
2873;DHT22;1444;49.166;7.312;2023-11-21T00:47:32;10.60;99.90
2873;DHT22;1444;49.166;7.312;2023-11-21T00:49:59;10.60;99.90
2873;DHT22;1444;49.166;7.312;2023-11-21T00:52:27;10.60;99.90
2873;DHT22;1444;49.166;7.312;2023-11-21T00:54:54;10.70;99.90
2873;DHT22;1444;49.166;7.312;2023-11-21T00:57:21;10.70;99.90
2873;DHT22;1444;49.166;7.312;2023-11-21T00:59:48;10.70;99.90
2873;DHT22;1444;49.166;7.312;2023-11-21T01:04:42;10.70;99.90
2873;DHT22;1444;49.166;7.312;2023-11-21T01:07:09;10.70;99.90
2873;DHT22;1444;49.166;7.312;2023-11-21T01:09:37;10.70;99.90
2873;DHT22;1444;49.166;7.312;2023-11-21T01:12:04;10.70;99.90
2873;DHT22;1444;49.166;7.312;2023-11-21T01:14:32;10.70;99.90
2873;DHT22;1444;49.166;7.312;2023-11-21T01:16:59;10.70;99.90
2873;DHT22;1444;49.166;7.312;2023-11-21T01:19:26;10.70;99.90
2873;DHT22;1444;49.166;7.312;2023-11-21T01:21:54;10.80;99.90
2873;DHT22;1444;49.166;7.312;2023-11-21T01:24:21;10.80;99.90
2873;DHT22;1444;49.166;7.312;2023-11-21T01:26:49;10.70;99.90
2873;DHT22;1444;49.166;7.312;2023-11-21T01:29:16;10.70;99.90
2873;DHT22;1444;49.166;7.312;2023-11-21T01:31:43;10.80;99.90
2873;DHT22;1444;49.166;7.312;2023-11-21T01:34:10;10.80;99.90
2873;DHT22;1444;49.166;7.312;2023-11-21T01:36:36;10.80;99.90
2873;DHT22;1444;49.166;7.312;2023-11-21T01:39:03;10.80;99.90
2873;DHT22;1444;49.166;7.312;2023-11-21T01:41:33;10.80;99.90
2873;DHT22;1444;49.166;7.312;2023-11-21T01:44:02;10.80;99.90
2873;DHT22;1444;49.166;7.312;2023-11-21T01:46:33;10.80;99.90
2873;DHT22;1444;49.166;7.312;2023-11-21T01:49:00;10.80;99.90
2873;DHT22;1444;49.166;7.312;2023-11-21T01:51:27;10.80;99.90
2873;DHT22;1444;49.166;7.312;2023-11-21T01:53:54;10.80;99.90
2873;DHT22;1444;49.166;7.312;2023-11-21T01:56:22;10.80;99.90
2873;DHT22;1444;49.166;7.312;2023-11-21T01:58:49;10.70;99.90
2873;DHT22;1444;49.166;7.312;2023-11-21T02:01:18;10.70;99.90
2873;DHT22;1444;49.166;7.312;2023-11-21T02:03:45;10.70;99.90
2873;DHT22;1444;49.166;7.312;2023-11-21T02:06:12;10.70;99.90
2873;DHT22;1444;49.166;7.312;2023-11-21T02:08:39;10.70;99.90
2873;DHT22;1444;49.166;7.312;2023-11-21T02:11:08;10.70;99.90
2873;DHT22;1444;49.166;7.312;2023-11-21T02:13:38;10.70;99.90
2873;DHT22;1444;49.166;7.312;2023-11-21T02:16:09;10.70;99.90
2873;DHT22;1444;49.166;7.312;2023-11-21T02:18:37;10.70;99.90
2873;DHT22;1444;49.166;7.312;2023-11-21T02:21:04;10.70;99.90
2873;DHT22;1444;49.166;7.312;2023-11-21T02:23:33;10.70;99.90
2873;DHT22;1444;49.166;7.312;2023-11-21T02:26:00;10.60;99.90
2873;DHT22;1444;49.166;7.312;2023-11-21T02:28:29;10.60;99.90
2873;DHT22;1444;49.166;7.312;2023-11-21T02:30:56;10.50;99.90
2873;DHT22;1444;49.166;7.312;2023-11-21T02:33:24;10.50;99.90
2873;DHT22;1444;49.166;7.312;2023-11-21T02:35:51;10.60;99.90
2873;DHT22;1444;49.166;7.312;2023-11-21T02:38:20;10.60;99.90
2873;DHT22;1444;49.166;7.312;2023-11-21T02:40:48;10.60;99.90
2873;DHT22;1444;49.166;7.312;2023-11-21T02:43:16;10.60;99.90
2873;DHT22;1444;49.166;7.312;2023-11-21T02:45:43;10.60;99.90
2873;DHT22;1444;49.166;7.312;2023-11-21T02:48:10;10.60;99.90
2873;DHT22;1444;49.166;7.312;2023-11-21T02:50:36;10.60;99.90
2873;DHT22;1444;49.166;7.312;2023-11-21T02:53:04;10.60;99.90
2873;DHT22;1444;49.166;7.312;2023-11-21T02:55:31;10.60;99.90
2873;DHT22;1444;49.166;7.312;2023-11-21T02:58:01;10.60;99.90
2873;DHT22;1444;49.166;7.312;2023-11-21T03:00:29;10.60;99.90
2873;DHT22;1444;49.166;7.312;2023-11-21T03:02:56;10.60;99.90
2873;DHT22;1444;49.166;7.312;2023-11-21T03:05:23;10.60;99.90
2873;DHT22;1444;49.166;7.312;2023-11-21T03:07:50;10.60;99.90
2873;DHT22;1444;49.166;7.312;2023-11-21T03:10:20;10.70;99.90
2873;DHT22;1444;49.166;7.312;2023-11-21T03:12:47;10.70;99.90
2873;DHT22;1444;49.166;7.312;2023-11-21T03:15:15;10.70;99.90
2873;DHT22;1444;49.166;7.312;2023-11-21T03:17:42;10.70;99.90
2873;DHT22;1444;49.166;7.312;2023-11-21T03:20:09;10.70;99.90
2873;DHT22;1444;49.166;7.312;2023-11-21T03:22:39;10.70;99.90
2873;DHT22;1444;49.166;7.312;2023-11-21T03:25:07;10.70;99.90
2873;DHT22;1444;49.166;7.312;2023-11-21T03:27:36;10.70;99.90
2873;DHT22;1444;49.166;7.312;2023-11-21T03:30:05;10.70;99.90
2873;DHT22;1444;49.166;7.312;2023-11-21T03:32:34;10.70;99.90
2873;DHT22;1444;49.166;7.312;2023-11-21T03:35:01;10.70;99.90
2873;DHT22;1444;49.166;7.312;2023-11-21T03:37:29;10.80;99.90
2873;DHT22;1444;49.166;7.312;2023-11-21T03:39:55;10.70;99.90
2873;DHT22;1444;49.166;7.312;2023-11-21T03:42:22;10.80;99.90
2873;DHT22;1444;49.166;7.312;2023-11-21T03:44:51;10.80;99.90
2873;DHT22;1444;49.166;7.312;2023-11-21T03:47:17;10.80;99.90
2873;DHT22;1444;49.166;7.312;2023-11-21T03:49:47;10.80;99.90
2873;DHT22;1444;49.166;7.312;2023-11-21T03:52:14;10.80;99.90
2873;DHT22;1444;49.166;7.312;2023-11-21T03:54:40;10.80;99.90
2873;DHT22;1444;49.166;7.312;2023-11-21T03:57:06;10.80;99.90
2873;DHT22;1444;49.166;7.312;2023-11-21T03:59:34;10.80;99.90
2873;DHT22;1444;49.166;7.312;2023-11-21T04:02:01;10.80;99.90
2873;DHT22;1444;49.166;7.312;2023-11-21T04:04:28;10.80;99.90
2873;DHT22;1444;49.166;7.312;2023-11-21T04:06:56;10.80;99.90
2873;DHT22;1444;49.166;7.312;2023-11-21T04:09:23;10.80;99.90
2873;DHT22;1444;49.166;7.312;2023-11-21T04:11:50;10.80;99.90
2873;DHT22;1444;49.166;7.312;2023-11-21T04:14:17;10.80;99.90
2873;DHT22;1444;49.166;7.312;2023-11-21T04:16:44;10.80;99.90
2873;DHT22;1444;49.166;7.312;2023-11-21T04:19:11;10.80;99.90
2873;DHT22;1444;49.166;7.312;2023-11-21T04:21:40;10.80;99.90
2873;DHT22;1444;49.166;7.312;2023-11-21T04:24:09;10.80;99.90
2873;DHT22;1444;49.166;7.312;2023-11-21T04:26:36;10.80;99.90
2873;DHT22;1444;49.166;7.312;2023-11-21T04:29:03;10.80;99.90
2873;DHT22;1444;49.166;7.312;2023-11-21T04:31:30;10.80;99.90
2873;DHT22;1444;49.166;7.312;2023-11-21T04:33:57;10.80;99.90
2873;DHT22;1444;49.166;7.312;2023-11-21T04:38:51;10.90;99.90
2873;DHT22;1444;49.166;7.312;2023-11-21T04:41:19;10.90;99.90
2873;DHT22;1444;49.166;7.312;2023-11-21T04:43:46;11.00;99.90
2873;DHT22;1444;49.166;7.312;2023-11-21T04:46:13;10.90;99.90
2873;DHT22;1444;49.166;7.312;2023-11-21T04:48:39;10.90;99.90
2873;DHT22;1444;49.166;7.312;2023-11-21T04:51:06;11.00;99.90
2873;DHT22;1444;49.166;7.312;2023-11-21T04:53:33;11.00;99.90
2873;DHT22;1444;49.166;7.312;2023-11-21T04:56:01;11.00;99.90
2873;DHT22;1444;49.166;7.312;2023-11-21T04:58:31;11.00;99.90
2873;DHT22;1444;49.166;7.312;2023-11-21T05:00:58;11.00;99.90
2873;DHT22;1444;49.166;7.312;2023-11-21T05:03:25;11.10;99.90
2873;DHT22;1444;49.166;7.312;2023-11-21T05:08:19;11.10;99.90
2873;DHT22;1444;49.166;7.312;2023-11-21T05:10:47;11.20;99.90
2873;DHT22;1444;49.166;7.312;2023-11-21T05:13:15;11.20;99.90
2873;DHT22;1444;49.166;7.312;2023-11-21T05:15:44;11.20;99.90
2873;DHT22;1444;49.166;7.312;2023-11-21T05:18:11;11.20;99.90
2873;DHT22;1444;49.166;7.312;2023-11-21T05:20:39;11.20;99.90
2873;DHT22;1444;49.166;7.312;2023-11-21T05:23:06;11.20;99.90
2873;DHT22;1444;49.166;7.312;2023-11-21T05:25:33;11.20;99.90
2873;DHT22;1444;49.166;7.312;2023-11-21T05:28:00;11.10;99.90
2873;DHT22;1444;49.166;7.312;2023-11-21T05:30:28;11.10;99.90
2873;DHT22;1444;49.166;7.312;2023-11-21T05:32:56;11.10;99.90
2873;DHT22;1444;49.166;7.312;2023-11-21T05:35:23;11.10;99.90
2873;DHT22;1444;49.166;7.312;2023-11-21T05:37:50;11.20;99.90
2873;DHT22;1444;49.166;7.312;2023-11-21T05:40:16;11.20;99.90
2873;DHT22;1444;49.166;7.312;2023-11-21T05:42:44;11.20;99.90
2873;DHT22;1444;49.166;7.312;2023-11-21T05:45:11;11.20;99.90
2873;DHT22;1444;49.166;7.312;2023-11-21T05:47:38;11.30;99.90
2873;DHT22;1444;49.166;7.312;2023-11-21T05:50:08;11.30;99.90
2873;DHT22;1444;49.166;7.312;2023-11-21T05:52:38;11.40;99.90
2873;DHT22;1444;49.166;7.312;2023-11-21T05:55:05;11.40;99.90
2873;DHT22;1444;49.166;7.312;2023-11-21T05:57:33;11.50;99.90
2873;DHT22;1444;49.166;7.312;2023-11-21T06:00:02;11.40;99.90
2873;DHT22;1444;49.166;7.312;2023-11-21T06:02:36;11.50;99.90
2873;DHT22;1444;49.166;7.312;2023-11-21T06:05:04;11.40;99.90
2873;DHT22;1444;49.166;7.312;2023-11-21T06:07:32;11.40;99.90
2873;DHT22;1444;49.166;7.312;2023-11-21T06:09:59;11.40;99.90
2873;DHT22;1444;49.166;7.312;2023-11-21T06:12:28;11.40;99.90
2873;DHT22;1444;49.166;7.312;2023-11-21T06:14:55;11.40;99.90
2873;DHT22;1444;49.166;7.312;2023-11-21T06:17:22;11.50;99.90
2873;DHT22;1444;49.166;7.312;2023-11-21T06:19:50;11.50;99.90
2873;DHT22;1444;49.166;7.312;2023-11-21T06:22:18;11.50;99.90
2873;DHT22;1444;49.166;7.312;2023-11-21T06:24:46;11.60;99.90
2873;DHT22;1444;49.166;7.312;2023-11-21T06:27:13;11.60;99.90
2873;DHT22;1444;49.166;7.312;2023-11-21T06:29:41;11.60;99.90
2873;DHT22;1444;49.166;7.312;2023-11-21T06:32:09;11.70;99.90
2873;DHT22;1444;49.166;7.312;2023-11-21T06:34:36;11.70;99.90
2873;DHT22;1444;49.166;7.312;2023-11-21T06:37:03;11.70;99.90
2873;DHT22;1444;49.166;7.312;2023-11-21T06:39:29;11.70;99.90
2873;DHT22;1444;49.166;7.312;2023-11-21T06:41:57;11.80;99.90
2873;DHT22;1444;49.166;7.312;2023-11-21T06:44:26;11.80;99.90
2873;DHT22;1444;49.166;7.312;2023-11-21T06:46:53;11.80;99.90
2873;DHT22;1444;49.166;7.312;2023-11-21T06:49:20;11.80;99.90
2873;DHT22;1444;49.166;7.312;2023-11-21T06:51:46;11.80;99.90
2873;DHT22;1444;49.166;7.312;2023-11-21T06:54:13;11.70;99.90
2873;DHT22;1444;49.166;7.312;2023-11-21T06:56:41;11.70;99.90
2873;DHT22;1444;49.166;7.312;2023-11-21T06:59:09;11.70;99.90
2873;DHT22;1444;49.166;7.312;2023-11-21T07:01:36;11.70;99.90
2873;DHT22;1444;49.166;7.312;2023-11-21T07:04:05;11.70;99.90
2873;DHT22;1444;49.166;7.312;2023-11-21T07:06:32;11.60;99.90
2873;DHT22;1444;49.166;7.312;2023-11-21T07:08:59;11.60;99.90
2873;DHT22;1444;49.166;7.312;2023-11-21T07:11:26;11.60;99.90
2873;DHT22;1444;49.166;7.312;2023-11-21T07:13:53;11.60;99.90
2873;DHT22;1444;49.166;7.312;2023-11-21T07:16:21;11.60;99.90
2873;DHT22;1444;49.166;7.312;2023-11-21T07:18:49;11.70;99.90
2873;DHT22;1444;49.166;7.312;2023-11-21T07:21:16;11.60;99.90
2873;DHT22;1444;49.166;7.312;2023-11-21T07:23:43;11.60;99.90
2873;DHT22;1444;49.166;7.312;2023-11-21T07:26:09;11.70;99.90
2873;DHT22;1444;49.166;7.312;2023-11-21T07:28:36;11.70;99.90
2873;DHT22;1444;49.166;7.312;2023-11-21T07:31:04;11.60;99.90
2873;DHT22;1444;49.166;7.312;2023-11-21T07:33:33;11.70;99.90
2873;DHT22;1444;49.166;7.312;2023-11-21T07:35:59;11.70;99.90
2873;DHT22;1444;49.166;7.312;2023-11-21T07:38:26;11.70;99.90
2873;DHT22;1444;49.166;7.312;2023-11-21T07:40:53;11.70;99.90
2873;DHT22;1444;49.166;7.312;2023-11-21T07:43:20;11.70;99.90
2873;DHT22;1444;49.166;7.312;2023-11-21T07:45:47;11.70;99.90
2873;DHT22;1444;49.166;7.312;2023-11-21T07:48:14;11.70;99.90
2873;DHT22;1444;49.166;7.312;2023-11-21T07:50:43;11.70;99.90
2873;DHT22;1444;49.166;7.312;2023-11-21T07:53:12;11.70;99.90
2873;DHT22;1444;49.166;7.312;2023-11-21T07:55:40;11.60;99.90
2873;DHT22;1444;49.166;7.312;2023-11-21T07:58:07;11.60;99.90
2873;DHT22;1444;49.166;7.312;2023-11-21T08:00:34;11.50;99.90
2873;DHT22;1444;49.166;7.312;2023-11-21T08:03:01;11.50;99.90
2873;DHT22;1444;49.166;7.312;2023-11-21T08:05:28;11.50;99.90
2873;DHT22;1444;49.166;7.312;2023-11-21T08:10:23;11.50;99.90
2873;DHT22;1444;49.166;7.312;2023-11-21T08:12:51;11.50;99.90
2873;DHT22;1444;49.166;7.312;2023-11-21T08:15:19;11.50;99.90
2873;DHT22;1444;49.166;7.312;2023-11-21T08:17:46;11.60;99.90
2873;DHT22;1444;49.166;7.312;2023-11-21T08:20:14;11.50;99.90
2873;DHT22;1444;49.166;7.312;2023-11-21T08:22:41;11.50;99.90
2873;DHT22;1444;49.166;7.312;2023-11-21T08:25:10;11.50;99.90
2873;DHT22;1444;49.166;7.312;2023-11-21T08:27:38;11.50;99.90
2873;DHT22;1444;49.166;7.312;2023-11-21T08:30:06;11.50;99.90
2873;DHT22;1444;49.166;7.312;2023-11-21T08:32:33;11.50;99.90
2873;DHT22;1444;49.166;7.312;2023-11-21T08:35:01;11.50;99.90
2873;DHT22;1444;49.166;7.312;2023-11-21T08:37:27;11.40;99.90
2873;DHT22;1444;49.166;7.312;2023-11-21T08:39:58;11.50;99.90
2873;DHT22;1444;49.166;7.312;2023-11-21T08:42:27;11.50;99.90
2873;DHT22;1444;49.166;7.312;2023-11-21T08:44:55;11.50;99.90
2873;DHT22;1444;49.166;7.312;2023-11-21T08:47:23;11.60;99.90
2873;DHT22;1444;49.166;7.312;2023-11-21T08:49:51;11.60;99.90
2873;DHT22;1444;49.166;7.312;2023-11-21T08:52:19;11.60;99.90
2873;DHT22;1444;49.166;7.312;2023-11-21T08:54:48;11.60;99.90
2873;DHT22;1444;49.166;7.312;2023-11-21T08:57:21;11.60;99.90
2873;DHT22;1444;49.166;7.312;2023-11-21T08:59:49;11.70;99.90
2873;DHT22;1444;49.166;7.312;2023-11-21T09:02:20;11.70;99.90
2873;DHT22;1444;49.166;7.312;2023-11-21T09:04:48;11.70;99.90
2873;DHT22;1444;49.166;7.312;2023-11-21T09:07:16;11.70;99.90
2873;DHT22;1444;49.166;7.312;2023-11-21T09:09:45;11.80;99.90
2873;DHT22;1444;49.166;7.312;2023-11-21T09:12:13;11.80;99.90
2873;DHT22;1444;49.166;7.312;2023-11-21T09:14:41;11.80;99.90
2873;DHT22;1444;49.166;7.312;2023-11-21T09:17:20;11.90;99.90
2873;DHT22;1444;49.166;7.312;2023-11-21T09:19:47;11.90;99.90
2873;DHT22;1444;49.166;7.312;2023-11-21T09:22:16;11.90;99.90
2873;DHT22;1444;49.166;7.312;2023-11-21T09:27:11;12.00;99.90
2873;DHT22;1444;49.166;7.312;2023-11-21T09:29:38;12.10;99.90
2873;DHT22;1444;49.166;7.312;2023-11-21T09:32:05;12.00;99.90
2873;DHT22;1444;49.166;7.312;2023-11-21T09:34:35;12.00;99.90
2873;DHT22;1444;49.166;7.312;2023-11-21T09:37:04;12.00;99.90
2873;DHT22;1444;49.166;7.312;2023-11-21T09:39:32;12.00;99.90
2873;DHT22;1444;49.166;7.312;2023-11-21T09:42:05;12.10;99.90
2873;DHT22;1444;49.166;7.312;2023-11-21T09:44:44;12.10;99.90
2873;DHT22;1444;49.166;7.312;2023-11-21T09:47:15;12.10;99.90
2873;DHT22;1444;49.166;7.312;2023-11-21T09:49:47;12.20;99.90
2873;DHT22;1444;49.166;7.312;2023-11-21T09:52:21;12.10;99.90
2873;DHT22;1444;49.166;7.312;2023-11-21T09:54:51;12.10;99.90
2873;DHT22;1444;49.166;7.312;2023-11-21T09:57:20;12.20;99.90
2873;DHT22;1444;49.166;7.312;2023-11-21T09:59:51;12.20;99.90
2873;DHT22;1444;49.166;7.312;2023-11-21T10:02:22;12.20;99.90
2873;DHT22;1444;49.166;7.312;2023-11-21T10:05:00;12.30;99.90
2873;DHT22;1444;49.166;7.312;2023-11-21T10:07:31;12.30;99.90
2873;DHT22;1444;49.166;7.312;2023-11-21T10:09:59;12.30;99.90
2873;DHT22;1444;49.166;7.312;2023-11-21T10:12:28;12.30;99.90
2873;DHT22;1444;49.166;7.312;2023-11-21T10:17:25;12.20;99.90
2873;DHT22;1444;49.166;7.312;2023-11-21T10:19:57;12.30;99.90
2873;DHT22;1444;49.166;7.312;2023-11-21T10:22:25;12.30;99.90
2873;DHT22;1444;49.166;7.312;2023-11-21T10:24:52;12.30;99.90
2873;DHT22;1444;49.166;7.312;2023-11-21T10:27:19;12.30;99.90
2873;DHT22;1444;49.166;7.312;2023-11-21T10:29:46;12.30;99.90
2873;DHT22;1444;49.166;7.312;2023-11-21T10:32:13;12.30;99.90
2873;DHT22;1444;49.166;7.312;2023-11-21T10:34:40;12.30;99.90
2873;DHT22;1444;49.166;7.312;2023-11-21T10:37:13;12.20;99.90
2873;DHT22;1444;49.166;7.312;2023-11-21T10:39:42;12.20;99.90
2873;DHT22;1444;49.166;7.312;2023-11-21T10:42:11;12.20;99.90
2873;DHT22;1444;49.166;7.312;2023-11-21T10:44:37;12.30;99.90
2873;DHT22;1444;49.166;7.312;2023-11-21T10:47:04;12.30;99.90
2873;DHT22;1444;49.166;7.312;2023-11-21T10:51:59;12.30;99.90
2873;DHT22;1444;49.166;7.312;2023-11-21T10:54:26;12.30;99.90
2873;DHT22;1444;49.166;7.312;2023-11-21T10:56:57;12.30;99.90
2873;DHT22;1444;49.166;7.312;2023-11-21T11:02:24;12.40;99.90
2873;DHT22;1444;49.166;7.312;2023-11-21T11:04:52;12.40;99.90
2873;DHT22;1444;49.166;7.312;2023-11-21T11:07:21;12.40;99.90
2873;DHT22;1444;49.166;7.312;2023-11-21T11:09:52;12.50;99.90
2873;DHT22;1444;49.166;7.312;2023-11-21T11:12:20;12.50;99.90
2873;DHT22;1444;49.166;7.312;2023-11-21T11:14:48;12.60;99.90
2873;DHT22;1444;49.166;7.312;2023-11-21T11:17:15;12.60;99.90
2873;DHT22;1444;49.166;7.312;2023-11-21T11:19:45;12.60;99.90
2873;DHT22;1444;49.166;7.312;2023-11-21T11:22:27;12.60;99.90
2873;DHT22;1444;49.166;7.312;2023-11-21T11:25:12;12.70;99.90
2873;DHT22;1444;49.166;7.312;2023-11-21T11:27:52;12.80;99.90
2873;DHT22;1444;49.166;7.312;2023-11-21T11:30:31;12.80;99.90
2873;DHT22;1444;49.166;7.312;2023-11-21T11:35:41;12.90;99.90
2873;DHT22;1444;49.166;7.312;2023-11-21T11:38:09;12.90;99.90
2873;DHT22;1444;49.166;7.312;2023-11-21T11:40:40;13.00;99.90
2873;DHT22;1444;49.166;7.312;2023-11-21T11:43:11;12.90;99.90
2873;DHT22;1444;49.166;7.312;2023-11-21T11:45:39;13.00;99.90
2873;DHT22;1444;49.166;7.312;2023-11-21T11:48:08;13.00;99.90
2873;DHT22;1444;49.166;7.312;2023-11-21T11:50:43;13.00;99.90
2873;DHT22;1444;49.166;7.312;2023-11-21T11:53:33;12.80;99.90
2873;DHT22;1444;49.166;7.312;2023-11-21T11:58:46;12.80;99.90
2873;DHT22;1444;49.166;7.312;2023-11-21T12:01:15;12.90;99.90
2873;DHT22;1444;49.166;7.312;2023-11-21T12:03:43;12.90;99.90
2873;DHT22;1444;49.166;7.312;2023-11-21T12:06:10;12.90;99.90
2873;DHT22;1444;49.166;7.312;2023-11-21T12:08:38;13.00;99.90
2873;DHT22;1444;49.166;7.312;2023-11-21T12:11:05;13.00;99.90
2873;DHT22;1444;49.166;7.312;2023-11-21T12:13:32;13.10;99.90
2873;DHT22;1444;49.166;7.312;2023-11-21T12:16:00;13.10;99.90
2873;DHT22;1444;49.166;7.312;2023-11-21T12:18:27;13.10;99.90
2873;DHT22;1444;49.166;7.312;2023-11-21T12:20:56;13.10;99.90
2873;DHT22;1444;49.166;7.312;2023-11-21T12:23:23;13.10;99.90
2873;DHT22;1444;49.166;7.312;2023-11-21T12:25:51;13.00;99.90
2873;DHT22;1444;49.166;7.312;2023-11-21T12:28:17;12.90;99.90
2873;DHT22;1444;49.166;7.312;2023-11-21T12:30:45;12.90;99.90
2873;DHT22;1444;49.166;7.312;2023-11-21T12:33:14;12.90;99.90
2873;DHT22;1444;49.166;7.312;2023-11-21T12:35:43;12.90;99.90
2873;DHT22;1444;49.166;7.312;2023-11-21T12:38:10;12.90;99.90
2873;DHT22;1444;49.166;7.312;2023-11-21T12:40:37;13.00;99.90
2873;DHT22;1444;49.166;7.312;2023-11-21T12:43:04;13.00;99.90
2873;DHT22;1444;49.166;7.312;2023-11-21T12:45:32;13.10;99.90
2873;DHT22;1444;49.166;7.312;2023-11-21T12:48:00;13.20;99.90
2873;DHT22;1444;49.166;7.312;2023-11-21T12:50:34;13.30;99.90
2873;DHT22;1444;49.166;7.312;2023-11-21T12:53:03;13.40;99.90
2873;DHT22;1444;49.166;7.312;2023-11-21T12:55:31;13.50;99.90
2873;DHT22;1444;49.166;7.312;2023-11-21T12:58:03;13.50;99.90
2873;DHT22;1444;49.166;7.312;2023-11-21T13:03:05;13.40;99.90
2873;DHT22;1444;49.166;7.312;2023-11-21T13:05:35;13.40;99.90
2873;DHT22;1444;49.166;7.312;2023-11-21T13:08:04;13.20;99.90
2873;DHT22;1444;49.166;7.312;2023-11-21T13:10:34;13.10;99.90
2873;DHT22;1444;49.166;7.312;2023-11-21T13:13:02;13.10;99.90
2873;DHT22;1444;49.166;7.312;2023-11-21T13:17:58;13.10;99.90
2873;DHT22;1444;49.166;7.312;2023-11-21T13:20:25;13.10;99.90
2873;DHT22;1444;49.166;7.312;2023-11-21T13:22:55;13.10;99.90
2873;DHT22;1444;49.166;7.312;2023-11-21T13:25:25;13.10;99.90
2873;DHT22;1444;49.166;7.312;2023-11-21T13:27:53;13.10;99.90
2873;DHT22;1444;49.166;7.312;2023-11-21T13:30:21;13.10;99.90
2873;DHT22;1444;49.166;7.312;2023-11-21T13:32:52;13.10;99.90
2873;DHT22;1444;49.166;7.312;2023-11-21T13:35:23;13.10;99.90
2873;DHT22;1444;49.166;7.312;2023-11-21T13:38:03;13.00;99.90
2873;DHT22;1444;49.166;7.312;2023-11-21T13:40:32;12.90;99.90
2873;DHT22;1444;49.166;7.312;2023-11-21T13:43:05;12.90;99.90
2873;DHT22;1444;49.166;7.312;2023-11-21T13:45:35;12.80;99.90
2873;DHT22;1444;49.166;7.312;2023-11-21T13:48:02;12.80;99.90
2873;DHT22;1444;49.166;7.312;2023-11-21T13:53:01;12.80;99.90
2873;DHT22;1444;49.166;7.312;2023-11-21T13:55:30;12.80;99.90
2873;DHT22;1444;49.166;7.312;2023-11-21T13:57:57;12.80;99.90
2873;DHT22;1444;49.166;7.312;2023-11-21T14:00:24;12.80;99.90
2873;DHT22;1444;49.166;7.312;2023-11-21T14:03:07;12.80;99.90
2873;DHT22;1444;49.166;7.312;2023-11-21T14:05:43;12.80;99.90
2873;DHT22;1444;49.166;7.312;2023-11-21T14:08:13;12.80;99.90
2873;DHT22;1444;49.166;7.312;2023-11-21T14:10:42;12.70;99.90
2873;DHT22;1444;49.166;7.312;2023-11-21T14:13:12;12.70;99.90
2873;DHT22;1444;49.166;7.312;2023-11-21T14:15:41;12.70;99.90
2873;DHT22;1444;49.166;7.312;2023-11-21T14:18:11;12.80;99.90
2873;DHT22;1444;49.166;7.312;2023-11-21T14:20:40;12.80;99.90
2873;DHT22;1444;49.166;7.312;2023-11-21T14:23:07;12.70;99.90
2873;DHT22;1444;49.166;7.312;2023-11-21T14:25:37;12.60;99.90
2873;DHT22;1444;49.166;7.312;2023-11-21T14:28:05;12.60;99.90
2873;DHT22;1444;49.166;7.312;2023-11-21T14:30:33;12.60;99.90
2873;DHT22;1444;49.166;7.312;2023-11-21T14:33:01;12.60;99.90
2873;DHT22;1444;49.166;7.312;2023-11-21T14:35:28;12.70;99.90
2873;DHT22;1444;49.166;7.312;2023-11-21T14:37:58;12.70;99.90
2873;DHT22;1444;49.166;7.312;2023-11-21T14:40:26;12.80;99.90
2873;DHT22;1444;49.166;7.312;2023-11-21T14:42:59;12.80;99.90
2873;DHT22;1444;49.166;7.312;2023-11-21T14:45:26;12.80;99.90
2873;DHT22;1444;49.166;7.312;2023-11-21T14:47:54;12.80;99.90
2873;DHT22;1444;49.166;7.312;2023-11-21T14:50:32;12.80;99.90
2873;DHT22;1444;49.166;7.312;2023-11-21T14:53:16;12.90;99.90
2873;DHT22;1444;49.166;7.312;2023-11-21T14:55:54;12.90;99.90
2873;DHT22;1444;49.166;7.312;2023-11-21T14:58:26;13.00;99.90
2873;DHT22;1444;49.166;7.312;2023-11-21T15:00:53;13.00;99.90
2873;DHT22;1444;49.166;7.312;2023-11-21T15:03:24;13.00;99.90
2873;DHT22;1444;49.166;7.312;2023-11-21T15:08:50;13.00;99.90
2873;DHT22;1444;49.166;7.312;2023-11-21T15:11:33;13.00;99.90
2873;DHT22;1444;49.166;7.312;2023-11-21T15:14:02;13.10;99.90
2873;DHT22;1444;49.166;7.312;2023-11-21T15:16:32;13.00;99.90
2873;DHT22;1444;49.166;7.312;2023-11-21T15:18:59;13.10;99.90
2873;DHT22;1444;49.166;7.312;2023-11-21T15:21:26;13.00;99.90
2873;DHT22;1444;49.166;7.312;2023-11-21T15:23:52;13.00;99.90
2873;DHT22;1444;49.166;7.312;2023-11-21T15:26:19;13.00;99.90
2873;DHT22;1444;49.166;7.312;2023-11-21T15:28:47;12.90;99.90
2873;DHT22;1444;49.166;7.312;2023-11-21T15:31:16;12.90;99.90
2873;DHT22;1444;49.166;7.312;2023-11-21T15:33:47;12.80;99.90
2873;DHT22;1444;49.166;7.312;2023-11-21T15:36:14;12.80;99.90
2873;DHT22;1444;49.166;7.312;2023-11-21T15:38:41;12.70;99.90
2873;DHT22;1444;49.166;7.312;2023-11-21T15:41:09;12.60;99.90
2873;DHT22;1444;49.166;7.312;2023-11-21T15:43:36;12.60;99.90
2873;DHT22;1444;49.166;7.312;2023-11-21T15:46:03;12.50;99.90
2873;DHT22;1444;49.166;7.312;2023-11-21T15:48:34;12.50;99.90
2873;DHT22;1444;49.166;7.312;2023-11-21T15:51:04;12.40;99.90
2873;DHT22;1444;49.166;7.312;2023-11-21T15:53:31;12.40;99.90
2873;DHT22;1444;49.166;7.312;2023-11-21T15:55:58;12.30;99.90
2873;DHT22;1444;49.166;7.312;2023-11-21T15:58:25;12.20;99.90
2873;DHT22;1444;49.166;7.312;2023-11-21T16:00:52;12.20;99.90
2873;DHT22;1444;49.166;7.312;2023-11-21T16:03:19;12.20;99.90
2873;DHT22;1444;49.166;7.312;2023-11-21T16:05:49;12.20;99.90
2873;DHT22;1444;49.166;7.312;2023-11-21T16:08:16;12.20;99.90
2873;DHT22;1444;49.166;7.312;2023-11-21T16:10:43;12.20;99.90
2873;DHT22;1444;49.166;7.312;2023-11-21T16:13:10;12.30;99.90
2873;DHT22;1444;49.166;7.312;2023-11-21T16:15:38;12.30;99.90
2873;DHT22;1444;49.166;7.312;2023-11-21T16:18:05;12.30;99.90
2873;DHT22;1444;49.166;7.312;2023-11-21T16:20:33;12.30;99.90
2873;DHT22;1444;49.166;7.312;2023-11-21T16:23:01;12.30;99.90
2873;DHT22;1444;49.166;7.312;2023-11-21T16:25:28;12.30;99.90
2873;DHT22;1444;49.166;7.312;2023-11-21T16:27:54;12.30;99.90
2873;DHT22;1444;49.166;7.312;2023-11-21T16:30:24;12.30;99.90
2873;DHT22;1444;49.166;7.312;2023-11-21T16:32:52;12.20;99.90
2873;DHT22;1444;49.166;7.312;2023-11-21T16:35:20;12.20;99.90
2873;DHT22;1444;49.166;7.312;2023-11-21T16:37:46;12.20;99.90
2873;DHT22;1444;49.166;7.312;2023-11-21T16:40:15;12.20;99.90
2873;DHT22;1444;49.166;7.312;2023-11-21T16:42:44;12.10;99.90
2873;DHT22;1444;49.166;7.312;2023-11-21T16:45:11;12.10;99.90
2873;DHT22;1444;49.166;7.312;2023-11-21T16:47:38;12.10;99.90